createdAt,value
2023-03-22T00:01:46.690Z,5.05
2023-03-22T00:04:29.305Z,4.90
2023-03-22T00:07:11.947Z,4.85
2023-03-22T00:09:55.899Z,5.30
2023-03-22T00:12:38.499Z,5.10
2023-03-22T00:15:21.195Z,5.05
2023-03-22T00:18:05.676Z,5.00
2023-03-22T00:20:48.796Z,5.20
2023-03-22T00:23:31.462Z,5.18
2023-03-22T00:26:15.640Z,5.25
2023-03-22T00:28:58.540Z,5.03
2023-03-22T00:31:41.243Z,5.50
2023-03-22T00:34:24.049Z,5.05
2023-03-22T00:37:08.037Z,5.60
2023-03-22T00:39:50.721Z,5.68
2023-03-22T00:42:34.863Z,5.28
2023-03-22T00:45:17.525Z,5.55
2023-03-22T00:48:00.307Z,5.30
2023-03-22T00:50:43.120Z,5.40
2023-03-22T00:53:26.091Z,5.65
2023-03-22T00:56:09.369Z,5.30
2023-03-22T00:59:01.457Z,5.32
2023-03-22T01:01:45.378Z,5.38
2023-03-22T01:04:28.909Z,5.43
2023-03-22T01:07:17.570Z,5.40
2023-03-22T01:10:00.385Z,5.28
2023-03-22T01:12:43.020Z,5.78
2023-03-22T01:15:27.041Z,6.10
2023-03-22T01:18:09.842Z,5.25
2023-03-22T01:20:53.079Z,5.97
2023-03-22T01:23:35.786Z,5.95
2023-03-22T01:26:18.405Z,6.00
2023-03-22T01:29:01.307Z,5.88
2023-03-22T01:31:45.413Z,6.38
2023-03-22T01:34:28.662Z,5.85
2023-03-22T01:37:11.655Z,6.07
2023-03-22T01:39:59.335Z,5.65
2023-03-22T01:42:42.618Z,6.45
2023-03-22T01:45:38.800Z,6.40
2023-03-22T01:48:27.461Z,6.40
2023-03-22T01:51:11.236Z,6.63
2023-03-22T01:54:08.614Z,6.50
2023-03-22T01:56:51.831Z,6.45
2023-03-22T01:59:44.904Z,6.32
2023-03-22T02:02:36.104Z,6.47
2023-03-22T02:05:32.440Z,6.82
2023-03-22T02:08:16.610Z,6.72
2023-03-22T02:11:14.677Z,6.50
2023-03-22T02:14:05.990Z,6.65
2023-03-22T02:17:00.445Z,6.65
2023-03-22T02:20:16.580Z,6.78
2023-03-22T02:23:16.951Z,6.43
2023-03-22T02:26:14.415Z,6.35
2023-03-22T02:28:59.788Z,6.13
2023-03-22T02:32:01.166Z,6.32
2023-03-22T02:35:01.783Z,6.72
2023-03-22T02:37:51.857Z,6.40
2023-03-22T02:40:38.176Z,6.28
2023-03-22T02:43:30.736Z,5.78
2023-03-22T02:46:17.763Z,6.20
2023-03-22T02:49:03.470Z,6.18
2023-03-22T02:51:48.098Z,5.63
2023-03-22T02:54:34.045Z,5.78
2023-03-22T02:57:23.390Z,6.18
2023-03-22T03:00:08.735Z,5.88
2023-03-22T03:02:54.597Z,5.90
2023-03-22T03:05:37.229Z,6.00
2023-03-22T03:08:20.890Z,7.07
2023-03-22T03:11:04.166Z,6.22
2023-03-22T03:13:49.089Z,5.80
2023-03-22T03:16:35.002Z,6.07
2023-03-22T03:19:21.766Z,6.03
2023-03-22T03:22:07.892Z,6.20
2023-03-22T03:24:55.355Z,5.90
2023-03-22T03:27:39.595Z,5.68
2023-03-22T03:30:27.122Z,6.45
2023-03-22T03:33:13.826Z,5.55
2023-03-22T03:35:59.513Z,5.93
2023-03-22T03:38:43.910Z,5.93
2023-03-22T03:41:28.957Z,5.72
2023-03-22T03:44:12.218Z,5.35
2023-03-22T03:46:56.548Z,5.68
2023-03-22T03:49:39.270Z,5.40
2023-03-22T03:52:24.431Z,5.65
2023-03-22T03:55:07.447Z,5.47
2023-03-22T03:57:51.119Z,5.50
2023-03-22T04:00:33.809Z,5.70
2023-03-22T04:03:41.218Z,5.32
2023-03-22T04:06:50.280Z,5.47
2023-03-22T04:09:38.852Z,5.65
2023-03-22T04:12:38.486Z,5.10
2023-03-22T04:15:32.920Z,5.57
2023-03-22T04:18:19.616Z,5.15
2023-03-22T04:21:03.778Z,5.45
2023-03-22T04:23:55.516Z,4.82
2023-03-22T04:26:39.181Z,5.22
2023-03-22T04:29:36.714Z,5.32
2023-03-22T04:32:39.639Z,5.07
2023-03-22T04:35:22.778Z,5.10
2023-03-22T04:38:07.901Z,4.93
2023-03-22T04:40:51.220Z,5.10
2023-03-22T04:43:39.450Z,4.95
2023-03-22T04:46:26.494Z,4.78
2023-03-22T04:49:17.072Z,5.10
2023-03-22T04:51:59.708Z,4.88
2023-03-22T04:54:52.941Z,4.43
2023-03-22T04:57:35.836Z,4.40
2023-03-22T05:00:19.163Z,5.15
2023-03-22T05:03:04.131Z,4.90
2023-03-22T05:05:57.097Z,4.63
2023-03-22T05:08:44.234Z,4.30
2023-03-22T05:11:28.654Z,5.07
2023-03-22T05:14:23.859Z,4.57
2023-03-22T05:17:06.588Z,4.20
2023-03-22T05:19:52.596Z,4.80
2023-03-22T05:22:38.048Z,4.88
2023-03-22T05:25:20.677Z,4.57
2023-03-22T05:28:05.158Z,4.65
2023-03-22T05:31:11.768Z,4.40
2023-03-22T05:34:01.313Z,4.22
2023-03-22T05:36:46.266Z,4.57
2023-03-22T05:39:41.458Z,4.40
2023-03-22T05:42:24.151Z,4.57
2023-03-22T05:45:10.340Z,4.15
2023-03-22T05:47:53.227Z,4.30
2023-03-22T05:50:37.987Z,4.43
2023-03-22T05:53:21.064Z,4.30
2023-03-22T05:56:11.536Z,4.20
2023-03-22T05:58:58.132Z,4.82
2023-03-22T06:01:42.333Z,4.40
2023-03-22T06:04:43.059Z,4.40
2023-03-22T06:07:31.123Z,4.50
2023-03-22T06:10:26.690Z,4.13
2023-03-22T06:13:09.837Z,3.80
2023-03-22T06:15:52.750Z,3.97
2023-03-22T06:18:40.051Z,4.07
2023-03-22T06:21:26.594Z,3.67
2023-03-22T06:24:09.397Z,3.83
2023-03-22T06:26:52.071Z,4.18
2023-03-22T06:29:35.166Z,4.13
2023-03-22T06:32:20.654Z,3.78
2023-03-22T06:35:04.839Z,3.97
2023-03-22T06:37:47.544Z,3.80
2023-03-22T06:40:30.211Z,3.42
2023-03-22T06:43:13.156Z,3.95
2023-03-22T06:45:59.826Z,3.67
2023-03-22T06:48:48.486Z,3.35
2023-03-22T06:51:34.402Z,3.28
2023-03-22T06:54:17.086Z,3.63
2023-03-22T06:56:59.732Z,3.60
2023-03-22T06:59:42.381Z,3.55
2023-03-22T07:02:25.678Z,3.20
2023-03-22T07:05:29.024Z,3.13
2023-03-22T07:08:13.120Z,3.15
2023-03-22T07:11:04.598Z,3.10
2023-03-22T07:13:48.990Z,3.17
2023-03-22T07:16:35.820Z,3.25
2023-03-22T07:19:19.842Z,3.08
2023-03-22T07:22:03.157Z,3.30
2023-03-22T07:24:56.982Z,3.20
2023-03-22T07:27:41.871Z,3.28
2023-03-22T07:30:24.937Z,3.05
2023-03-22T07:33:08.790Z,3.13
2023-03-22T07:35:51.505Z,2.95
2023-03-22T07:38:34.179Z,3.55
2023-03-22T07:41:18.962Z,3.40
2023-03-22T07:44:24.708Z,3.28
2023-03-22T07:47:39.939Z,3.50
2023-03-22T07:50:35.573Z,3.50
2023-03-22T07:53:21.042Z,3.55
2023-03-22T07:56:04.082Z,3.72
2023-03-22T07:58:48.228Z,3.80
2023-03-22T08:01:31.018Z,4.20
2023-03-22T08:04:34.168Z,4.43
2023-03-22T08:07:35.121Z,4.28
2023-03-22T08:10:18.141Z,4.03
2023-03-22T08:13:00.952Z,4.57
2023-03-22T08:15:45.060Z,4.90
2023-03-22T08:18:27.889Z,4.78
2023-03-22T08:21:10.636Z,5.30
2023-03-22T08:23:54.398Z,5.30
2023-03-22T08:26:57.673Z,5.20
2023-03-22T08:30:02.635Z,4.70
2023-03-22T08:32:48.626Z,5.03
2023-03-22T08:35:31.336Z,4.97
2023-03-22T08:38:14.003Z,5.63
2023-03-22T08:41:03.300Z,5.32
2023-03-22T08:43:45.937Z,5.32
2023-03-22T08:46:28.688Z,4.88
2023-03-22T08:49:13.105Z,5.70
2023-03-22T08:52:01.683Z,6.28
2023-03-22T08:54:56.362Z,5.80
2023-03-22T08:58:05.093Z,5.13
2023-03-22T09:00:57.799Z,5.22
2023-03-22T09:03:52.818Z,4.85
2023-03-22T09:06:37.544Z,5.20
2023-03-22T09:09:20.245Z,4.25
2023-03-22T09:12:06.647Z,4.53
2023-03-22T09:14:51.798Z,4.53
2023-03-22T09:17:34.919Z,3.92
2023-03-22T09:20:19.332Z,4.35
2023-03-22T09:23:04.786Z,4.18
2023-03-22T09:25:48.759Z,3.80
2023-03-22T09:28:37.004Z,4.32
2023-03-22T09:31:22.318Z,3.38
2023-03-22T09:34:16.507Z,3.17
2023-03-22T09:37:02.501Z,4.05
2023-03-22T09:39:54.859Z,3.83
2023-03-22T09:42:39.567Z,3.47
2023-03-22T09:45:30.764Z,3.63
2023-03-22T09:48:15.635Z,3.17
2023-03-22T09:50:58.352Z,3.90
2023-03-22T09:53:41.009Z,3.13
2023-03-22T09:56:26.793Z,3.20
2023-03-22T09:59:14.470Z,2.97
2023-03-22T10:01:59.879Z,3.25
2023-03-22T10:04:52.188Z,3.17
2023-03-22T10:07:40.267Z,3.17
2023-03-22T10:10:24.059Z,2.85
2023-03-22T10:13:13.833Z,2.78
2023-03-22T10:15:59.085Z,2.97
2023-03-22T10:18:43.489Z,2.83
2023-03-22T10:21:27.370Z,3.40
2023-03-22T10:24:16.097Z,2.47
2023-03-22T10:26:58.771Z,2.60
2023-03-22T10:29:44.601Z,2.72
2023-03-22T10:32:30.955Z,2.30
2023-03-22T10:35:15.208Z,2.67
2023-03-22T10:37:59.240Z,2.15
2023-03-22T10:40:42.240Z,2.30
2023-03-22T10:43:26.921Z,2.13
2023-03-22T10:46:18.645Z,1.95
2023-03-22T10:49:01.782Z,2.00
2023-03-22T10:51:48.343Z,1.83
2023-03-22T10:54:31.345Z,2.30
2023-03-22T10:57:14.000Z,1.83
2023-03-22T10:59:57.170Z,1.80
2023-03-22T11:02:48.317Z,2.00
2023-03-22T11:05:31.362Z,2.28
2023-03-22T11:08:15.580Z,1.83
2023-03-22T11:11:00.297Z,1.50
2023-03-22T11:13:43.164Z,1.80
2023-03-22T11:16:26.199Z,1.70
2023-03-22T11:19:15.937Z,2.10
2023-03-22T11:21:58.820Z,1.88
2023-03-22T11:24:41.535Z,1.83
2023-03-22T11:27:25.942Z,1.80
2023-03-22T11:30:19.967Z,1.80
2023-03-22T11:33:03.644Z,1.80
2023-03-22T11:35:48.819Z,2.20
2023-03-22T11:38:36.615Z,1.85
2023-03-22T11:41:23.106Z,1.67
2023-03-22T11:44:06.790Z,1.60
2023-03-22T11:46:50.273Z,1.60
2023-03-22T11:49:38.702Z,1.55
2023-03-22T11:52:24.224Z,1.52
2023-03-22T11:55:07.120Z,1.40
2023-03-22T11:57:50.289Z,1.45
2023-03-22T12:00:34.894Z,1.70
2023-03-22T12:03:19.116Z,1.55
2023-03-22T12:06:03.007Z,1.70
2023-03-22T12:08:49.092Z,1.40
2023-03-22T12:11:34.988Z,1.65
2023-03-22T12:14:20.388Z,1.50
2023-03-22T12:17:05.991Z,1.60
2023-03-22T12:19:53.774Z,1.40
2023-03-22T12:22:39.937Z,1.58
2023-03-22T12:25:25.977Z,1.60
2023-03-22T12:28:10.975Z,1.60
2023-03-22T12:30:56.187Z,1.80
2023-03-22T12:33:43.325Z,1.85
2023-03-22T12:36:31.214Z,1.90
2023-03-22T12:39:18.545Z,2.20
2023-03-22T12:42:04.889Z,2.00
2023-03-22T12:45:02.184Z,2.00
2023-03-22T12:47:48.793Z,2.15
2023-03-22T12:50:34.500Z,2.00
2023-03-22T12:53:18.648Z,2.05
2023-03-22T12:56:01.910Z,1.70
2023-03-22T12:58:47.241Z,2.30
2023-03-22T13:01:33.224Z,2.10
2023-03-22T13:04:31.262Z,2.30
2023-03-22T13:07:16.251Z,2.03
2023-03-22T13:09:59.743Z,1.95
2023-03-22T13:12:42.467Z,1.90
2023-03-22T13:15:42.455Z,2.33
2023-03-22T13:18:33.162Z,1.90
2023-03-22T13:21:17.311Z,1.73
2023-03-22T13:24:02.154Z,1.60
2023-03-22T13:26:47.434Z,1.77
2023-03-22T13:29:36.295Z,1.73
2023-03-22T13:32:29.906Z,2.40
2023-03-22T13:35:21.712Z,1.65
2023-03-22T13:38:08.589Z,1.92
2023-03-22T13:40:54.686Z,2.33
2023-03-22T13:43:38.182Z,2.40
2023-03-22T13:46:44.515Z,2.92
2023-03-22T13:49:45.744Z,3.10
2023-03-22T13:52:34.907Z,2.95
2023-03-22T13:55:32.566Z,2.88
2023-03-22T13:58:30.127Z,2.80
2023-03-22T14:01:15.841Z,3.20
2023-03-22T14:03:59.926Z,3.00
2023-03-22T14:06:46.074Z,2.80
2023-03-22T14:09:32.463Z,2.83
2023-03-22T14:12:19.060Z,2.85
2023-03-22T14:15:02.486Z,2.28
2023-03-22T14:17:50.067Z,2.60
2023-03-22T14:20:35.584Z,2.25
